createdAt,value
2018-02-01T00:02:09.586Z,99.90
2018-02-01T00:04:37.103Z,99.90
2018-02-01T00:07:04.599Z,99.90
2018-02-01T00:09:32.110Z,99.90
2018-02-01T00:11:59.607Z,99.90
2018-02-01T00:14:27.123Z,99.90
2018-02-01T00:16:54.614Z,99.90
2018-02-01T00:19:22.130Z,99.90
2018-02-01T00:21:49.623Z,99.90
2018-02-01T00:24:17.114Z,99.90
2018-02-01T00:26:44.626Z,99.90
2018-02-01T00:29:12.114Z,99.90
2018-02-01T00:31:39.631Z,99.90
2018-02-01T00:34:07.126Z,99.90
2018-02-01T00:36:34.622Z,99.90
2018-02-01T00:39:02.898Z,99.90
2018-02-01T00:41:31.149Z,99.90
2018-02-01T00:43:58.654Z,99.90
2018-02-01T00:46:26.134Z,99.90
2018-02-01T00:48:53.637Z,99.90
2018-02-01T00:51:21.121Z,99.90
2018-02-01T00:53:48.629Z,99.90
2018-02-01T00:56:16.117Z,99.90
2018-02-01T00:58:44.390Z,99.90
2018-02-01T01:01:12.645Z,99.90
2018-02-01T01:03:40.129Z,99.90
2018-02-01T01:06:08.396Z,99.90
2018-02-01T01:08:35.887Z,99.90
2018-02-01T01:11:03.406Z,99.90
2018-02-01T01:13:30.893Z,99.90
2018-02-01T01:15:59.141Z,99.90
2018-02-01T01:18:26.649Z,99.90
2018-02-01T01:20:54.133Z,99.90
2018-02-01T01:23:21.638Z,99.90
2018-02-01T01:25:49.889Z,99.90
2018-02-01T01:28:17.398Z,99.90
2018-02-01T01:30:44.885Z,99.90
2018-02-01T01:33:12.373Z,99.90
2018-02-01T01:35:39.881Z,99.90
2018-02-01T01:38:07.365Z,99.90
2018-02-01T01:40:34.875Z,99.90
2018-02-01T01:43:02.361Z,99.90
2018-02-01T01:45:29.870Z,99.90
2018-02-01T01:47:58.122Z,99.90
2018-02-01T01:50:25.605Z,99.90
2018-02-01T01:52:53.883Z,99.90
2018-02-01T01:55:22.133Z,99.90
2018-02-01T01:57:49.641Z,99.90
2018-02-01T02:00:17.125Z,99.90
2018-02-01T02:02:44.618Z,99.90
2018-02-01T02:05:12.121Z,99.90
2018-02-01T02:07:39.605Z,99.90
2018-02-01T02:10:07.118Z,99.90
2018-02-01T02:12:35.368Z,99.90
2018-02-01T02:15:02.855Z,99.90
2018-02-01T02:17:30.361Z,99.90
2018-02-01T02:19:57.840Z,99.90
2018-02-01T02:22:25.350Z,99.90
2018-02-01T02:24:52.833Z,99.90
2018-02-01T02:27:20.359Z,99.90
2018-02-01T02:29:47.841Z,99.90
2018-02-01T02:32:23.351Z,99.90
2018-02-01T02:34:50.833Z,99.90
2018-02-01T02:37:18.318Z,99.90
2018-02-01T02:39:45.842Z,99.90
2018-02-01T02:42:13.330Z,99.90
2018-02-01T02:44:40.839Z,99.90
2018-02-01T02:47:09.098Z,99.90
2018-02-01T02:49:37.818Z,99.90
2018-02-01T02:52:05.352Z,99.90
2018-02-01T02:54:32.806Z,99.90
2018-02-01T02:57:01.082Z,99.90
2018-02-01T02:59:29.333Z,99.90
2018-02-01T03:01:56.842Z,99.90
2018-02-01T03:04:24.328Z,99.90
2018-02-01T03:06:51.842Z,99.90
2018-02-01T03:09:20.093Z,99.90
2018-02-01T03:11:47.579Z,99.90
2018-02-01T03:14:15.861Z,99.90
2018-02-01T03:16:43.346Z,99.90
2018-02-01T03:19:10.854Z,99.90
2018-02-01T03:21:38.450Z,99.90
2018-02-01T03:24:05.946Z,99.90
2018-02-01T03:26:33.459Z,99.90
2018-02-01T03:29:00.958Z,99.90
2018-02-01T03:31:28.470Z,99.90
2018-02-01T03:33:55.958Z,99.90
2018-02-01T03:36:23.442Z,99.90
2018-02-01T03:38:50.951Z,99.90
2018-02-01T03:41:18.442Z,99.90
2018-02-01T03:43:45.953Z,99.90
2018-02-01T03:46:14.215Z,99.90
2018-02-01T03:48:42.470Z,99.90
2018-02-01T03:51:09.987Z,99.90
2018-02-01T03:53:37.478Z,99.90
2018-02-01T03:56:04.990Z,99.90
2018-02-01T03:58:32.479Z,99.90
2018-02-01T04:01:00.023Z,99.90
2018-02-01T04:03:27.522Z,99.90
2018-02-01T04:05:55.014Z,99.90
2018-02-01T04:08:23.303Z,99.90
2018-02-01T04:10:50.794Z,99.90
2018-02-01T04:13:18.306Z,99.90
2018-02-01T04:15:46.562Z,99.90
2018-02-01T04:18:14.050Z,99.90
2018-02-01T04:20:41.571Z,99.90
2018-02-01T04:23:09.070Z,99.90
2018-02-01T04:25:36.587Z,99.90
2018-02-01T04:28:04.845Z,99.90
2018-02-01T04:30:32.362Z,99.90
2018-02-01T04:32:59.854Z,99.90
2018-02-01T04:35:27.347Z,99.90
2018-02-01T04:37:55.626Z,99.90
2018-02-01T04:40:23.882Z,99.90
2018-02-01T04:42:51.395Z,99.90
2018-02-01T04:45:18.882Z,99.90
2018-02-01T04:47:46.378Z,99.90
2018-02-01T04:50:13.894Z,99.90
2018-02-01T04:52:41.386Z,99.90
2018-02-01T04:55:08.906Z,99.90
2018-02-01T04:57:36.394Z,99.90
2018-02-01T05:00:03.910Z,99.90
2018-02-01T05:02:31.403Z,99.90
2018-02-01T05:04:58.899Z,99.90
2018-02-01T05:07:27.183Z,99.90
2018-02-01T05:09:54.677Z,99.90
2018-02-01T05:12:22.195Z,99.90
2018-02-01T05:14:50.454Z,99.90
2018-02-01T05:17:17.947Z,99.90
2018-02-01T05:19:45.462Z,99.90
2018-02-01T05:22:12.950Z,99.90
2018-02-01T05:24:41.230Z,99.90
2018-02-01T05:27:08.722Z,99.90
2018-02-01T05:29:36.206Z,99.90
2018-02-01T05:32:03.718Z,99.90
2018-02-01T05:34:31.206Z,99.90
2018-02-01T05:36:58.718Z,99.90
2018-02-01T05:39:26.206Z,99.90
2018-02-01T05:41:53.723Z,99.90
2018-02-01T05:44:21.974Z,99.90
2018-02-01T05:46:50.234Z,99.90
2018-02-01T05:49:17.758Z,99.90
2018-02-01T05:51:46.014Z,99.90
2018-02-01T05:54:14.298Z,99.90
2018-02-01T05:56:41.786Z,99.90
2018-02-01T05:59:09.278Z,99.90
2018-02-01T06:01:36.795Z,99.90
2018-02-01T06:04:04.294Z,99.90
2018-02-01T06:06:31.812Z,99.90
2018-02-01T06:08:59.306Z,99.90
2018-02-01T06:11:26.802Z,99.90
2018-02-01T06:13:55.082Z,99.90
2018-02-01T06:16:22.566Z,99.90
2018-02-01T06:18:50.081Z,99.90
2018-02-01T06:21:18.339Z,99.90
2018-02-01T06:23:46.600Z,99.90
2018-02-01T06:26:14.114Z,99.90
2018-02-01T06:28:41.610Z,99.90
2018-02-01T06:31:09.122Z,99.90
2018-02-01T06:33:37.382Z,99.90
2018-02-01T06:36:05.666Z,99.90
2018-02-01T06:38:33.919Z,99.90
2018-02-01T06:41:01.430Z,99.90
2018-02-01T06:43:28.946Z,99.90
2018-02-01T06:45:56.440Z,99.90
2018-02-01T06:48:23.959Z,99.90
2018-02-01T06:50:51.455Z,99.90
2018-02-01T06:53:18.950Z,99.90
2018-02-01T06:55:46.458Z,99.90
2018-02-01T06:58:14.715Z,99.90
2018-02-01T07:03:44.546Z,99.90
2018-02-01T07:06:12.067Z,99.90
2018-02-01T07:08:39.568Z,99.90
2018-02-01T07:11:07.834Z,99.90
2018-02-01T07:13:35.346Z,99.90
2018-02-01T07:16:02.851Z,99.90
2018-02-01T07:18:30.370Z,99.90
2018-02-01T07:20:57.858Z,99.90
2018-02-01T07:23:25.417Z,99.90
2018-02-01T07:25:53.671Z,99.90
2018-02-01T07:28:21.167Z,99.90
2018-02-01T07:30:48.683Z,99.90
2018-02-01T07:33:16.174Z,99.90
2018-02-01T07:35:43.691Z,99.90
2018-02-01T07:38:11.187Z,99.90
2018-02-01T07:40:38.703Z,99.90
2018-02-01T07:43:06.203Z,99.90
2018-02-01T07:45:46.610Z,99.90
2018-02-01T07:48:14.103Z,99.90
2018-02-01T07:50:41.590Z,99.90
2018-02-01T07:53:09.871Z,99.90
2018-02-01T07:55:37.362Z,99.90
2018-02-01T07:58:04.881Z,99.90
2018-02-01T08:00:32.374Z,99.90
2018-02-01T08:02:59.894Z,99.60
2018-02-01T08:05:27.390Z,99.90
2018-02-01T08:07:54.882Z,99.90
2018-02-01T08:10:22.390Z,99.90
2018-02-01T08:12:50.643Z,99.80
2018-02-01T08:15:18.154Z,99.70
2018-02-01T08:17:45.655Z,99.90
2018-02-01T08:20:14.682Z,99.90
2018-02-01T08:22:42.942Z,99.90
2018-02-01T08:25:10.438Z,99.90
2018-02-01T08:27:37.957Z,99.90
2018-02-01T08:30:05.459Z,99.90
2018-02-01T08:32:32.974Z,99.60
2018-02-01T08:35:00.471Z,99.50
2018-02-01T08:37:27.985Z,99.90
2018-02-01T08:39:55.474Z,99.90
2018-02-01T08:42:22.967Z,99.90
2018-02-01T08:44:50.478Z,99.90
2018-02-01T08:47:18.739Z,99.90
2018-02-01T08:49:46.250Z,99.90
2018-02-01T08:52:13.739Z,99.90
2018-02-01T08:54:41.255Z,99.90
2018-02-01T08:57:08.745Z,99.90
2018-02-01T08:59:36.272Z,99.90
2018-02-01T09:02:03.766Z,99.90
2018-02-01T09:04:31.262Z,99.90
2018-02-01T09:06:59.538Z,99.90
2018-02-01T09:09:27.795Z,99.90
2018-02-01T09:11:55.309Z,99.90
2018-02-01T09:14:22.802Z,99.90
2018-02-01T09:16:50.318Z,99.90
2018-02-01T09:19:17.811Z,99.90
2018-02-01T09:21:45.358Z,99.90
2018-02-01T09:24:12.854Z,99.90
2018-02-01T09:26:40.401Z,99.90
2018-02-01T09:29:07.919Z,99.90
2018-02-01T09:31:35.419Z,99.90
2018-02-01T09:34:02.934Z,99.90
2018-02-01T09:36:30.426Z,99.70
2018-02-01T09:38:58.706Z,99.50
2018-02-01T09:41:27.703Z,99.20
2018-02-01T09:43:55.213Z,99.20
2018-02-01T09:46:22.711Z,99.30
2018-02-01T09:48:50.217Z,99.30
2018-02-01T09:51:17.735Z,98.90
2018-02-01T09:53:45.223Z,99.20
2018-02-01T09:56:13.502Z,98.80
2018-02-01T09:58:41.762Z,98.60
2018-02-01T10:01:09.278Z,98.60
2018-02-01T10:03:36.823Z,98.30
2018-02-01T10:06:04.337Z,97.30
2018-02-01T10:08:31.826Z,97.50
2018-02-01T10:10:59.318Z,98.00
2018-02-01T10:13:26.830Z,97.30
2018-02-01T10:15:55.082Z,97.40
2018-02-01T10:18:22.599Z,97.40
2018-02-01T10:20:50.120Z,97.70
2018-02-01T10:23:18.397Z,95.90
2018-02-01T10:25:46.651Z,96.50
2018-02-01T10:28:14.163Z,96.50
2018-02-01T10:30:41.654Z,95.80
2018-02-01T10:33:09.150Z,95.90
2018-02-01T10:35:37.432Z,96.30
2018-02-01T10:38:05.690Z,96.40
2018-02-01T10:40:33.966Z,96.50
2018-02-01T10:43:02.227Z,96.10
2018-02-01T10:45:29.743Z,95.80
2018-02-01T10:47:57.234Z,95.70
2018-02-01T10:50:25.518Z,95.00
2018-02-01T10:52:53.018Z,95.00
2018-02-01T10:55:20.502Z,94.80
2018-02-01T10:57:48.018Z,94.40
2018-02-01T11:00:16.317Z,94.00
2018-02-01T11:02:44.578Z,93.80
2018-02-01T11:05:12.836Z,93.80
2018-02-01T11:07:40.346Z,93.80
2018-02-01T11:10:07.844Z,93.30
2018-02-01T11:12:35.338Z,92.70
2018-02-01T11:15:02.862Z,92.90
2018-02-01T11:17:30.362Z,92.80
2018-02-01T11:19:57.879Z,92.80
2018-02-01T11:22:25.371Z,92.20
2018-02-01T11:24:52.886Z,92.70
2018-02-01T11:27:20.374Z,92.60
2018-02-01T11:29:48.653Z,92.70
2018-02-01T11:32:16.926Z,92.10
2018-02-01T11:34:45.178Z,92.50
2018-02-01T11:37:12.686Z,92.60
2018-02-01T11:39:40.181Z,92.70
2018-02-01T11:42:07.694Z,93.20
2018-02-01T11:44:35.177Z,93.80
2018-02-01T11:47:02.690Z,94.50
2018-02-01T11:49:30.947Z,94.30
2018-02-01T11:51:58.438Z,94.70
2018-02-01T11:54:25.950Z,94.20
2018-02-01T11:56:53.438Z,93.60
2018-02-01T11:59:21.718Z,92.50
2018-02-01T12:01:49.970Z,92.40
2018-02-01T12:04:17.486Z,92.40
2018-02-01T12:06:44.978Z,92.30
2018-02-01T12:09:12.487Z,92.30
2018-02-01T12:11:39.979Z,91.40
2018-02-01T12:14:07.475Z,91.70
2018-02-01T12:16:35.758Z,91.00
2018-02-01T12:19:04.019Z,91.10
2018-02-01T12:21:31.534Z,91.10
2018-02-01T12:23:59.026Z,90.20
2018-02-01T12:26:26.534Z,88.70
2018-02-01T12:28:54.030Z,89.10
2018-02-01T12:31:21.546Z,89.10
2018-02-01T12:33:49.039Z,89.70
2018-02-01T12:36:16.534Z,88.40
2018-02-01T12:38:44.053Z,86.50
2018-02-01T12:41:11.542Z,87.30
2018-02-01T12:43:39.059Z,88.30
2018-02-01T12:46:06.554Z,89.20
2018-02-01T12:48:34.073Z,90.30
2018-02-01T12:51:01.562Z,84.50
2018-02-01T12:53:29.070Z,83.40
2018-02-01T12:55:56.591Z,83.60
2018-02-01T12:58:24.082Z,83.10
2018-02-01T13:00:51.599Z,83.60
2018-02-01T13:03:19.090Z,82.90
2018-02-01T13:05:47.378Z,85.60
2018-02-01T13:08:14.870Z,85.60
2018-02-01T13:10:42.387Z,84.10
2018-02-01T13:13:09.879Z,85.00
2018-02-01T13:15:37.366Z,85.70
2018-02-01T13:18:04.874Z,86.00
2018-02-01T13:20:32.362Z,84.90
2018-02-01T13:22:59.875Z,86.10
2018-02-01T13:25:28.131Z,86.90
2018-02-01T13:27:55.646Z,86.90
2018-02-01T13:30:23.230Z,89.60
2018-02-01T13:32:50.723Z,90.60
2018-02-01T13:35:19.007Z,91.60
2018-02-01T13:37:47.271Z,90.90
2018-02-01T13:40:15.555Z,90.20
2018-02-01T13:42:43.814Z,90.00
2018-02-01T13:45:11.334Z,90.00
2018-02-01T13:47:38.826Z,90.00
2018-02-01T13:50:06.343Z,87.10
2018-02-01T13:52:33.838Z,86.90
2018-02-01T13:55:01.326Z,90.10
2018-02-01T13:57:29.609Z,89.90
2018-02-01T13:59:57.098Z,89.90
2018-02-01T14:02:24.607Z,90.10
2018-02-01T14:04:52.858Z,90.90
2018-02-01T14:07:20.375Z,90.90
2018-02-01T14:09:47.866Z,91.50
2018-02-01T14:12:15.354Z,91.90
2018-02-01T14:14:43.635Z,93.20
2018-02-01T14:17:11.129Z,92.80
2018-02-01T14:19:38.650Z,93.10
2018-02-01T14:22:06.912Z,93.40
2018-02-01T14:24:34.427Z,93.40
2018-02-01T14:27:01.918Z,93.90
2018-02-01T14:29:29.434Z,94.20
2018-02-01T14:31:56.926Z,94.40
2018-02-01T14:34:24.410Z,94.70
2018-02-01T14:36:51.927Z,94.60
2018-02-01T14:39:19.419Z,94.30
2018-02-01T14:41:46.934Z,94.30
2018-02-01T14:44:14.431Z,94.50
2018-02-01T14:46:41.947Z,94.30
2018-02-01T14:49:09.439Z,94.50
2018-02-01T14:51:36.955Z,94.30
2018-02-01T14:54:04.446Z,94.20
2018-02-01T14:56:31.938Z,94.50
2018-02-01T14:58:59.446Z,95.00
2018-02-01T15:01:26.934Z,95.50
2018-02-01T15:03:54.450Z,95.70
2018-02-01T15:06:21.943Z,96.00
2018-02-01T15:08:49.458Z,96.30
2018-02-01T15:11:16.954Z,96.70
2018-02-01T15:13:44.442Z,96.70
2018-02-01T15:16:11.950Z,97.30
2018-02-01T15:18:39.442Z,97.10
2018-02-01T15:21:06.959Z,97.30
2018-02-01T15:23:34.455Z,97.00
2018-02-01T15:26:01.966Z,97.90
2018-02-01T15:28:29.454Z,97.20
2018-02-01T15:30:56.942Z,98.60
2018-02-01T15:33:24.449Z,97.40
2018-02-01T15:35:51.942Z,97.50
2018-02-01T15:38:19.459Z,98.00
2018-02-01T15:40:46.950Z,95.40
2018-02-01T15:43:14.466Z,95.70
2018-02-01T15:45:41.958Z,95.70
2018-02-01T15:48:09.446Z,95.80
2018-02-01T15:50:36.963Z,95.70
2018-02-01T15:53:04.458Z,95.90
2018-02-01T15:55:31.976Z,95.50
2018-02-01T15:57:59.470Z,95.90
2018-02-01T16:00:26.990Z,96.00
2018-02-01T16:02:54.486Z,96.10
2018-02-01T16:05:21.983Z,95.80
2018-02-01T16:07:50.266Z,96.30
2018-02-01T16:10:18.527Z,96.70
2018-02-01T16:12:46.811Z,96.50
2018-02-01T16:15:15.073Z,96.60
2018-02-01T16:17:42.599Z,96.60
2018-02-01T16:20:10.098Z,96.50
2018-02-01T16:22:38.381Z,96.70
2018-02-01T16:25:06.640Z,96.60
2018-02-01T16:27:34.146Z,96.50
2018-02-01T16:30:01.667Z,97.20
2018-02-01T16:32:29.934Z,96.80
2018-02-01T16:34:58.234Z,97.00
2018-02-01T16:37:26.494Z,96.80
2018-02-01T16:39:54.782Z,97.00
2018-02-01T16:42:23.046Z,96.90
2018-02-01T16:44:51.332Z,96.80
2018-02-01T16:47:19.591Z,96.90
2018-02-01T16:49:47.082Z,96.80
2018-02-01T16:52:14.598Z,97.00
2018-02-01T16:54:42.090Z,96.90
2018-02-01T16:57:10.366Z,96.90
2018-02-01T16:59:39.247Z,96.90
2018-02-01T17:02:07.526Z,96.70
2018-02-01T17:04:35.787Z,96.80
2018-02-01T17:07:03.278Z,96.80
2018-02-01T17:09:30.794Z,96.80
2018-02-01T17:11:58.294Z,96.70
2018-02-01T17:14:25.810Z,96.50
2018-02-01T17:16:53.315Z,96.70
2018-02-01T17:19:20.830Z,96.30
2018-02-01T17:21:48.317Z,96.70
2018-02-01T17:24:16.589Z,96.80
2018-02-01T17:26:44.878Z,97.00
2018-02-01T17:29:12.418Z,97.00
2018-02-01T17:31:39.903Z,97.10
2018-02-01T17:34:07.394Z,97.10
2018-02-01T17:36:34.910Z,97.20
2018-02-01T17:39:02.441Z,97.40
2018-02-01T17:41:29.935Z,97.60
2018-02-01T17:43:57.463Z,97.60
2018-02-01T17:46:25.755Z,97.80
2018-02-01T17:48:54.029Z,97.40
2018-02-01T17:51:22.294Z,97.30
2018-02-01T17:53:50.578Z,97.30
2018-02-01T17:56:18.834Z,97.30
2018-02-01T17:58:46.326Z,97.30
2018-02-01T18:01:13.842Z,97.50
2018-02-01T18:03:41.334Z,97.30
2018-02-01T18:06:09.618Z,97.50
2018-02-01T18:08:37.111Z,97.40
2018-02-01T18:11:04.630Z,97.10
2018-02-01T18:13:32.890Z,97.20
2018-02-01T18:16:01.171Z,97.70
2018-02-01T18:18:29.423Z,97.60
2018-02-01T18:20:56.938Z,97.60
2018-02-01T18:23:24.430Z,97.70
2018-02-01T18:25:51.918Z,97.60
2018-02-01T18:28:20.194Z,97.90
2018-02-01T18:30:48.451Z,98.00
2018-02-01T18:33:15.971Z,98.00
2018-02-01T18:35:43.471Z,98.10
2018-02-01T18:38:10.991Z,98.20
2018-02-01T18:40:38.486Z,98.10
2018-02-01T18:43:05.978Z,98.40
2018-02-01T18:45:34.267Z,98.20
2018-02-01T18:48:01.762Z,98.20
2018-02-01T18:50:29.278Z,98.20
2018-02-01T18:52:56.775Z,98.30
2018-02-01T18:55:24.299Z,98.20
2018-02-01T18:57:51.819Z,98.10
2018-02-01T19:00:19.366Z,98.10
2018-02-01T19:02:46.879Z,98.20
2018-02-01T19:05:14.374Z,98.10
2018-02-01T19:07:42.678Z,98.30
2018-02-01T19:10:10.173Z,98.30
2018-02-01T19:12:37.686Z,98.00
2018-02-01T19:15:05.179Z,97.80
2018-02-01T19:17:32.674Z,97.90
2018-02-01T19:20:00.191Z,97.80
2018-02-01T19:22:27.678Z,97.70
2018-02-01T19:24:55.194Z,97.80
2018-02-01T19:27:23.454Z,97.80
2018-02-01T19:29:50.966Z,97.80
2018-02-01T19:32:18.467Z,97.70
2018-02-01T19:34:45.964Z,97.70
2018-02-01T19:37:13.486Z,97.90
2018-02-01T19:39:40.983Z,97.70
2018-02-01T19:42:08.547Z,97.80
2018-02-01T19:44:36.038Z,97.70
2018-02-01T19:47:03.549Z,97.80
2018-02-01T19:49:31.802Z,97.90
2018-02-01T19:51:59.295Z,97.90
2018-02-01T19:54:26.815Z,97.90
2018-02-01T19:56:54.312Z,98.00
2018-02-01T19:59:21.830Z,98.10
2018-02-01T20:01:49.322Z,98.20
2018-02-01T20:04:16.899Z,98.10
2018-02-01T20:06:44.397Z,98.10
2018-02-01T20:09:11.914Z,98.10
2018-02-01T20:11:39.409Z,98.10
2018-02-01T20:14:06.927Z,98.10
2018-02-01T20:16:34.421Z,98.10
2018-02-01T20:19:01.915Z,98.40
2018-02-01T20:21:30.194Z,98.60
2018-02-01T20:23:58.454Z,99.00
2018-02-01T20:26:25.971Z,99.00
2018-02-01T20:28:53.464Z,99.60
2018-02-01T20:31:20.982Z,99.90
2018-02-01T20:33:48.475Z,99.90
2018-02-01T20:36:15.986Z,99.90
2018-02-01T20:38:43.482Z,99.90
2018-02-01T20:41:10.980Z,99.90
2018-02-01T20:43:39.264Z,99.90
2018-02-01T20:46:07.526Z,99.90
2018-02-01T20:48:35.813Z,99.90
2018-02-01T20:51:04.074Z,99.90
2018-02-01T20:53:32.354Z,99.90
2018-02-01T20:56:00.614Z,99.90
2018-02-01T20:58:28.134Z,99.90
2018-02-01T21:00:55.635Z,99.90
2018-02-01T21:03:23.126Z,99.90
2018-02-01T21:05:50.642Z,99.90
2018-02-01T21:08:18.135Z,99.90
2018-02-01T21:10:46.414Z,99.90
2018-02-01T21:13:13.907Z,99.90
2018-02-01T21:15:41.422Z,99.90
2018-02-01T21:18:09.676Z,99.90
2018-02-01T21:20:37.190Z,99.90
2018-02-01T21:23:04.678Z,99.90
2018-02-01T21:25:32.166Z,99.90
2018-02-01T21:28:00.522Z,99.90
2018-02-01T21:30:28.020Z,99.90
2018-02-01T21:32:55.539Z,99.90
2018-02-01T21:35:23.030Z,99.90
2018-02-01T21:37:51.311Z,99.90
2018-02-01T21:40:18.807Z,99.90
2018-02-01T21:42:46.322Z,99.90
2018-02-01T21:45:14.602Z,99.90
2018-02-01T21:47:42.101Z,99.90
2018-02-01T21:50:12.618Z,99.90
2018-02-01T21:52:40.114Z,99.90
2018-02-01T21:55:07.623Z,99.90
2018-02-01T21:57:35.115Z,99.90
2018-02-01T22:00:02.636Z,99.90
2018-02-01T22:02:30.130Z,99.90
2018-02-01T22:04:57.623Z,99.90
2018-02-01T22:07:25.907Z,99.90
2018-02-01T22:09:54.195Z,99.90
2018-02-01T22:12:21.682Z,99.90
2018-02-01T22:14:49.170Z,99.90
2018-02-01T22:17:16.678Z,99.90
2018-02-01T22:19:44.176Z,99.90
2018-02-01T22:22:11.691Z,99.90
2018-02-01T22:24:39.186Z,99.90
2018-02-01T22:27:06.700Z,99.90
2018-02-01T22:29:34.190Z,99.90
2018-02-01T22:32:01.684Z,99.90
2018-02-01T22:34:29.206Z,99.90
2018-02-01T22:36:56.703Z,99.90
2018-02-01T22:39:24.213Z,99.90
2018-02-01T22:41:51.706Z,99.90
2018-02-01T22:44:19.218Z,99.90
2018-02-01T22:46:46.761Z,99.90
2018-02-01T22:49:15.023Z,99.90
2018-02-01T22:51:43.298Z,99.90
2018-02-01T22:54:10.790Z,99.90
2018-02-01T22:56:38.311Z,99.90
2018-02-01T22:59:05.804Z,99.90
2018-02-01T23:01:33.313Z,99.90
2018-02-01T23:04:00.811Z,99.90
2018-02-01T23:06:28.303Z,99.90
2018-02-01T23:08:55.819Z,99.90
2018-02-01T23:11:24.070Z,99.90
2018-02-01T23:13:51.586Z,99.90
2018-02-01T23:16:19.082Z,99.90
2018-02-01T23:18:47.372Z,99.90
2018-02-01T23:21:14.866Z,99.90
2018-02-01T23:23:42.354Z,99.90
2018-02-01T23:26:09.931Z,99.90
2018-02-01T23:28:37.432Z,99.90
2018-02-01T23:31:04.946Z,99.90
2018-02-01T23:33:32.438Z,99.90
2018-02-01T23:36:00.718Z,99.90
2018-02-01T23:38:28.978Z,99.90
2018-02-01T23:40:57.234Z,99.90
2018-02-01T23:43:24.747Z,99.90
2018-02-01T23:45:52.239Z,99.90
2018-02-01T23:48:19.756Z,99.90
2018-02-01T23:50:47.251Z,99.90
2018-02-01T23:53:14.767Z,99.90
2018-02-01T23:55:42.253Z,99.90
2018-02-01T23:58:09.762Z,99.90
